Time;durP1;ratioP1;P1;durP2;ratioP2;P2;SDS_P1;SDS_P2;PMS_P1;PMS_P2;Temp;Humidity;BMP_temperature;BMP_pressure;BME280_temperature;BME280_humidity;BME280_pressure;Samples;Min_cycle;Max_cycle;Signal;HPM_P1;HPM_P2
2023/08/18 00:03:04;;;;;;;0.68;0.65;;;;;;;21.73;60.67;96634.50;10491242;28;20538;-30
2023/08/18 00:08:04;;;;;;;1.85;0.80;;;;;;;21.74;60.69;96629.34;10487836;28;20031;-29
2023/08/18 00:13:05;;;;;;;0.80;0.80;;;;;;;21.73;60.83;96630.22;10492315;28;20028;-29
2023/08/18 00:18:05;;;;;;;1.13;0.73;;;;;;;21.75;60.83;96630.22;10484766;28;20055;-29
2023/08/18 00:23:06;;;;;;;0.75;0.50;;;;;;;21.72;60.61;96628.53;10486654;28;20036;-29
2023/08/18 00:28:06;;;;;;;0.80;0.80;;;;;;;21.72;60.67;96628.53;10490609;28;20027;-29
2023/08/18 00:33:06;;;;;;;0.52;0.52;;;;;;;21.67;60.43;96626.91;10487356;28;20040;-29
2023/08/18 00:38:07;;;;;;;0.47;0.40;;;;;;;21.72;60.45;96625.16;10491127;28;20044;-29
2023/08/18 00:43:08;;;;;;;0.80;0.73;;;;;;;21.71;60.63;96629.41;10487862;28;20103;-29
2023/08/18 00:48:08;;;;;;;0.60;0.60;;;;;;;21.71;60.68;96626.84;10492196;28;20024;-29
2023/08/18 00:53:09;;;;;;;0.70;0.70;;;;;;;21.67;60.68;96625.22;10482404;28;20040;-29
2023/08/18 00:58:10;;;;;;;0.80;0.80;;;;;;;21.71;60.57;96619.22;10490266;28;20481;-30
2023/08/18 01:03:10;;;;;;;0.70;0.68;;;;;;;21.73;60.61;96620.03;10483967;28;20033;-29
2023/08/18 01:08:10;;;;;;;0.60;0.60;;;;;;;21.74;60.68;96616.59;10487892;28;20483;-29
2023/08/18 01:13:21;;;;;;;1.03;0.93;;;;;;;21.74;60.67;96605.59;10487963;28;20044;-29
2023/08/18 01:18:22;;;;;;;0.50;0.50;;;;;;;21.74;60.72;96611.50;10487747;28;20486;-29
2023/08/18 01:23:35;;;;;;;0.88;0.88;;;;;;;21.74;60.67;96608.97;10505162;28;20036;-29
2023/08/18 01:28:36;;;;;;;0.82;0.82;;;;;;;21.72;60.66;96607.31;10486164;28;20024;-29
2023/08/18 01:34:00;;;;;;;0.55;0.52;;;;;;;21.73;60.16;96622.56;10505492;28;20032;-29
2023/08/18 01:39:02;;;;;;;0.47;0.47;;;;;;;21.72;60.52;96609.88;10503175;28;20027;-29
2023/08/18 01:44:05;;;;;;;0.55;0.55;;;;;;;21.72;60.18;96617.53;10501772;28;20040;-29
2023/08/18 01:49:06;;;;;;;0.70;0.70;;;;;;;21.72;60.41;96613.25;10504501;28;20028;-29
2023/08/18 01:54:06;;;;;;;1.00;0.60;;;;;;;21.72;60.53;96610.69;10499973;28;20278;-29
2023/08/18 01:59:07;;;;;;;1.00;0.75;;;;;;;21.73;60.57;96606.47;10502895;28;20040;-29
2023/08/18 02:04:08;;;;;;;0.55;0.55;;;;;;;21.73;60.37;96598.81;10502954;28;20486;-29
2023/08/18 02:09:08;;;;;;;0.40;0.40;;;;;;;21.72;60.46;96590.31;10498004;28;20024;-29
2023/08/18 02:14:09;;;;;;;0.73;0.70;;;;;;;21.70;60.47;96589.50;10503422;28;20271;-29
2023/08/18 02:19:09;;;;;;;0.60;0.60;;;;;;;21.71;60.27;96603.91;10495309;28;20456;-31
2023/08/18 02:24:10;;;;;;;0.80;0.53;;;;;;;21.72;60.51;96597.13;10505154;28;20046;-29
2023/08/18 02:29:10;;;;;;;0.40;0.40;;;;;;;21.70;60.32;96594.59;10499291;28;20028;-30
2023/08/18 02:34:11;;;;;;;0.52;0.52;;;;;;;21.68;60.48;96591.22;10497456;28;20033;-30
2023/08/18 02:39:11;;;;;;;0.80;0.60;;;;;;;21.73;60.55;96589.44;10494431;28;20037;-30
2023/08/18 02:44:12;;;;;;;0.50;0.50;;;;;;;21.74;60.37;96595.41;10491390;28;20222;-30
2023/08/18 02:49:13;;;;;;;0.77;0.77;;;;;;;21.70;60.58;96586.09;10495363;28;20535;-29
2023/08/18 02:54:13;;;;;;;0.47;0.47;;;;;;;21.72;60.42;96592.84;10494190;28;20075;-29
2023/08/18 02:59:14;;;;;;;0.43;0.43;;;;;;;21.69;60.33;96581.88;10496361;28;20037;-30
2023/08/18 03:04:14;;;;;;;0.53;0.53;;;;;;;21.66;60.22;96572.56;10494171;28;20676;-29
2023/08/18 03:09:16;;;;;;;0.90;0.70;;;;;;;21.72;60.39;96576.75;10494759;28;20498;-29
2023/08/18 03:14:17;;;;;;;0.63;0.52;;;;;;;21.72;60.46;96569.09;10495649;28;20040;-29
2023/08/18 03:19:18;;;;;;;0.60;0.57;;;;;;;21.73;60.69;96568.22;10491265;28;20040;-30
2023/08/18 03:24:18;;;;;;;0.70;0.70;;;;;;;21.72;60.95;96566.56;10495074;28;20279;-29
2023/08/18 03:29:18;;;;;;;0.47;0.43;;;;;;;21.72;60.34;96561.47;10491439;28;20033;-29
2023/08/18 03:34:19;;;;;;;0.77;0.40;;;;;;;21.72;60.17;96574.19;10491947;28;20123;-29
2023/08/18 03:39:19;;;;;;;0.70;0.60;;;;;;;21.69;60.14;96552.16;10492909;28;20032;-29
2023/08/18 03:44:19;;;;;;;0.50;0.50;;;;;;;21.72;60.16;96561.47;10485238;28;20032;-29
2023/08/18 03:49:21;;;;;;;0.57;0.50;;;;;;;21.73;60.18;96568.22;10490540;28;20057;-29
2023/08/18 03:54:21;;;;;;;0.60;0.60;;;;;;;21.72;60.10;96564.00;10485125;28;20032;-29
2023/08/18 03:59:22;;;;;;;0.60;0.50;;;;;;;21.68;60.18;96559.81;10492351;28;20454;-29
2023/08/18 04:04:23;;;;;;;0.60;0.60;;;;;;;21.73;60.25;96563.13;10489292;28;20056;-28
2023/08/18 04:09:23;;;;;;;0.50;0.50;;;;;;;21.74;60.21;96565.63;10493204;28;20033;-29
2023/08/18 04:14:24;;;;;;;0.57;0.57;;;;;;;21.74;60.34;96565.63;10491229;28;20041;-30
2023/08/18 04:19:24;;;;;;;0.60;0.50;;;;;;;21.73;60.31;96573.31;10486715;28;20533;-29
2023/08/18 04:24:25;;;;;;;1.23;0.67;;;;;;;21.73;60.24;96565.69;10490007;28;20318;-29
2023/08/18 04:29:27;;;;;;;0.40;0.40;;;;;;;21.74;60.52;96577.56;10489267;28;20279;-29
2023/08/18 04:34:28;;;;;;;0.93;0.60;;;;;;;21.75;60.16;96584.34;10483589;28;20048;-31
2023/08/18 04:39:29;;;;;;;0.60;0.60;;;;;;;21.74;60.40;96587.75;10491149;28;20580;-29
2023/08/18 04:44:30;;;;;;;0.50;0.40;;;;;;;21.73;60.40;96586.91;10489713;28;20097;-29
2023/08/18 04:49:30;;;;;;;0.45;0.45;;;;;;;21.68;59.97;96585.28;10492341;28;20085;-29
2023/08/18 04:54:31;;;;;;;0.60;0.60;;;;;;;21.73;60.30;96602.19;10490122;28;20507;-29
2023/08/18 04:59:31;;;;;;;1.08;0.77;;;;;;;21.74;60.19;96596.22;10484833;28;20029;-30
2023/08/18 05:04:35;;;;;;;0.40;0.40;;;;;;;21.68;60.34;96585.28;10491010;28;20033;-30
2023/08/18 05:09:35;;;;;;;0.50;0.50;;;;;;;21.72;60.25;96597.94;10487698;28;20484;-28
2023/08/18 05:14:35;;;;;;;0.93;0.70;;;;;;;21.74;60.20;96605.59;10491387;28;20032;-29
2023/08/18 05:19:36;;;;;;;0.70;0.70;;;;;;;21.71;60.25;96598.81;10483574;28;20751;-29
2023/08/18 05:24:39;;;;;;;0.60;0.60;;;;;;;21.74;60.25;96592.84;10485116;28;20395;-31
2023/08/18 05:29:39;;;;;;;1.27;0.82;;;;;;;21.70;60.04;96591.19;10490818;28;20559;-29
2023/08/18 05:34:39;;;;;;;1.30;1.08;;;;;;;21.73;60.09;96593.72;10482485;28;20036;-29
2023/08/18 05:39:40;;;;;;;0.53;0.50;;;;;;;21.73;60.21;96598.81;10490729;28;20032;-30
2023/08/18 05:44:42;;;;;;;0.30;0.30;;;;;;;21.73;60.28;96602.19;10484091;28;20033;-29
2023/08/18 05:49:42;;;;;;;0.60;0.35;;;;;;;21.68;59.99;96592.94;10490790;28;20029;-30
2023/08/18 05:54:42;;;;;;;0.57;0.57;;;;;;;21.74;60.09;96606.41;10482345;28;20478;-30
2023/08/18 05:59:43;;;;;;;0.87;0.50;;;;;;;21.74;60.09;96598.78;10487859;28;20365;-28
2023/08/18 06:04:43;;;;;;;0.40;0.40;;;;;;;21.75;60.27;96597.06;10491221;28;20344;-31
2023/08/18 06:09:44;;;;;;;0.60;0.60;;;;;;;21.74;60.12;96590.31;10491836;28;20032;-29
2023/08/18 06:14:44;;;;;;;0.60;0.57;;;;;;;21.73;60.16;96599.63;10495659;28;20037;-29
2023/08/18 06:19:44;;;;;;;0.70;0.70;;;;;;;21.75;60.36;96599.63;10490053;28;20399;-30
2023/08/18 06:24:45;;;;;;;0.50;0.40;;;;;;;21.74;60.15;96603.88;10497247;28;20482;-30
2023/08/18 06:29:45;;;;;;;0.52;0.50;;;;;;;21.74;60.01;96600.50;10495217;28;20027;-30
2023/08/18 06:34:45;;;;;;;0.60;0.50;;;;;;;21.73;60.15;96606.47;10497552;28;20036;-29
2023/08/18 06:39:46;;;;;;;0.53;0.53;;;;;;;21.74;60.21;96608.13;10490479;28;20033;-29
2023/08/18 06:44:46;;;;;;;0.57;0.50;;;;;;;21.74;60.12;96606.41;10497016;28;20052;-29
2023/08/18 06:49:47;;;;;;;0.50;0.50;;;;;;;21.74;60.11;96601.31;10490801;28;20028;-30
2023/08/18 06:54:47;;;;;;;0.57;0.57;;;;;;;21.73;60.28;96603.91;10490266;28;20712;-29
2023/08/18 06:59:48;;;;;;;0.75;0.50;;;;;;;21.74;60.09;96605.59;10495541;28;20486;-29
2023/08/18 07:04:49;;;;;;;0.50;0.50;;;;;;;21.74;60.16;96613.22;10494694;28;20040;-30
2023/08/18 07:09:49;;;;;;;0.60;0.60;;;;;;;21.74;60.04;96611.50;10495746;28;20028;-29
2023/08/18 07:14:50;;;;;;;0.40;0.40;;;;;;;21.75;60.24;96612.38;10489569;28;20036;-30
2023/08/18 07:19:50;;;;;;;0.63;0.60;;;;;;;21.76;60.20;96614.91;10495274;28;20032;-29
2023/08/18 07:24:51;;;;;;;0.40;0.40;;;;;;;21.74;60.33;96611.50;10493069;28;20566;-30
2023/08/18 07:29:51;;;;;;;0.50;0.50;;;;;;;21.74;60.14;96619.16;10494863;28;20028;-29
2023/08/18 07:34:52;;;;;;;0.50;0.50;;;;;;;21.75;60.23;96620.88;10491026;28;20040;-29
2023/08/18 07:39:52;;;;;;;0.50;0.50;;;;;;;21.76;60.33;96625.09;10493925;28;20407;-29
2023/08/18 07:44:52;;;;;;;1.23;1.00;;;;;;;21.75;60.27;96632.75;10493912;28;20533;-29
2023/08/18 07:49:53;;;;;;;0.83;0.50;;;;;;;21.72;60.23;96620.88;10490761;28;20039;-30
2023/08/18 07:54:53;;;;;;;0.77;0.60;;;;;;;21.74;59.94;96620.88;10493983;28;20044;-29
2023/08/18 07:59:54;;;;;;;0.60;0.60;;;;;;;21.76;60.29;96624.25;10491327;28;20047;-29
2023/08/18 08:04:54;;;;;;;0.55;0.50;;;;;;;21.76;60.00;96620.00;10490605;28;20037;-29
2023/08/18 08:09:56;;;;;;;0.50;0.50;;;;;;;21.77;60.32;96631.03;10492597;28;20513;-29
2023/08/18 08:14:57;;;;;;;0.60;0.60;;;;;;;21.76;60.26;96630.19;10489565;28;20147;-30
2023/08/18 08:20:00;;;;;;;0.52;0.47;;;;;;;21.78;60.42;96632.69;10492590;28;20491;-29
2023/08/18 08:25:00;;;;;;;0.47;0.47;;;;;;;21.78;60.35;96641.19;10475731;28;20029;-30
2023/08/18 08:30:00;;;;;;;0.60;0.60;;;;;;;21.79;60.25;96647.97;10491985;28;20032;-30
2023/08/18 08:35:01;;;;;;;0.60;0.60;;;;;;;21.79;60.38;96655.63;10490685;28;20078;-30
2023/08/18 08:40:01;;;;;;;0.73;0.73;;;;;;;21.78;60.28;96651.41;10492488;28;20036;-30
2023/08/18 08:45:02;;;;;;;0.70;0.70;;;;;;;21.80;60.39;96661.59;10485142;28;20126;-30
2023/08/18 08:50:03;;;;;;;0.50;0.50;;;;;;;21.79;60.34;96660.72;10486032;28;20035;-30
2023/08/18 08:55:04;;;;;;;0.60;0.60;;;;;;;21.80;60.46;96661.59;10493544;28;20028;-30
2023/08/18 09:00:05;;;;;;;0.40;0.40;;;;;;;21.79;60.22;96654.78;10491030;28;20399;-30
2023/08/18 09:05:06;;;;;;;0.73;0.63;;;;;;;21.79;60.38;96663.28;10492961;28;20033;-29
2023/08/18 09:10:09;;;;;;;1.05;0.70;;;;;;;21.78;60.13;96659.03;10486773;28;20036;-29
2023/08/18 09:15:09;;;;;;;0.52;0.52;;;;;;;21.79;60.37;96660.72;10491289;28;20102;-29
2023/08/18 09:20:13;;;;;;;0.63;0.63;;;;;;;21.79;60.31;96650.53;10485016;28;20440;-30
2023/08/18 09:25:14;;;;;;;0.50;0.45;;;;;;;21.79;60.30;96650.53;10491409;28;20422;-30
2023/08/18 09:30:14;;;;;;;1.15;0.75;;;;;;;21.79;60.48;96644.56;10483451;28;20041;-29
2023/08/18 09:35:20;;;;;;;0.95;0.90;;;;;;;21.80;60.62;96652.22;10490955;28;20032;-29
2023/08/18 09:40:21;;;;;;;0.50;0.50;;;;;;;21.78;60.39;96638.66;10491996;28;20037;-30
2023/08/18 09:45:23;;;;;;;0.80;0.60;;;;;;;21.80;60.40;96636.91;10499059;28;20036;-29
2023/08/18 09:50:27;;;;;;;0.52;0.52;;;;;;;21.81;60.73;96635.22;10494764;28;20039;-30
2023/08/18 09:55:42;;;;;;;0.80;0.70;;;;;;;21.80;60.52;96626.72;10494029;28;20068;-30
2023/08/18 10:00:44;;;;;;;0.70;0.70;;;;;;;21.81;60.51;96625.03;10498526;28;20036;-29
2023/08/18 10:05:46;;;;;;;0.52;0.52;;;;;;;21.81;60.55;96620.75;10492928;28;20025;-29
2023/08/18 10:10:47;;;;;;;0.57;0.50;;;;;;;21.81;60.60;96623.31;10498025;28;20043;-29
2023/08/18 10:15:48;;;;;;;0.60;0.60;;;;;;;21.81;60.70;96620.75;10489513;28;20513;-29
2023/08/18 10:20:53;;;;;;;0.50;0.50;;;;;;;21.80;60.67;96613.97;10495163;28;20066;-30
2023/08/18 10:25:54;;;;;;;0.57;0.53;;;;;;;21.80;60.67;96610.59;10497632;28;20032;-29
2023/08/18 10:31:03;;;;;;;0.68;0.57;;;;;;;21.81;60.80;96610.56;10494166;28;20024;-30
2023/08/18 10:36:05;;;;;;;0.50;0.50;;;;;;;21.83;60.93;96605.44;10497328;28;20036;-29
2023/08/18 10:41:05;;;;;;;0.60;0.50;;;;;;;21.84;60.95;96609.69;10493071;28;20071;-29
2023/08/18 10:46:09;;;;;;;0.60;0.50;;;;;;;21.82;61.09;96599.50;10493669;28;20512;-30
2023/08/18 10:51:10;;;;;;;0.65;0.60;;;;;;;21.84;61.07;96602.88;10496045;28;20355;-29
2023/08/18 10:56:10;;;;;;;0.87;0.87;;;;;;;21.83;60.95;96593.56;10494173;28;20531;-28
2023/08/18 11:01:11;;;;;;;0.60;0.60;;;;;;;21.84;60.88;96587.59;10496531;28;20282;-30
2023/08/18 11:06:12;;;;;;;0.75;0.70;;;;;;;21.84;61.27;96585.06;10490200;28;20029;-29
2023/08/18 11:11:15;;;;;;;0.73;0.73;;;;;;;21.84;61.33;96582.50;10494382;28;20036;-30
2023/08/18 11:16:15;;;;;;;0.70;0.65;;;;;;;21.85;61.23;96579.09;10495995;28;20463;-30
2023/08/18 11:21:16;;;;;;;0.80;0.77;;;;;;;21.85;61.22;96579.09;10486537;28;20029;-29
2023/08/18 11:26:18;;;;;;;0.63;0.63;;;;;;;21.86;61.46;96578.22;10495788;28;20074;-29
2023/08/18 11:31:19;;;;;;;0.80;0.60;;;;;;;21.86;61.46;96579.91;10488241;28;20486;-31
2023/08/18 11:36:20;;;;;;;0.70;0.70;;;;;;;21.84;61.41;96577.41;10495100;28;20098;-30
2023/08/18 11:41:20;;;;;;;0.60;0.60;;;;;;;21.87;61.03;96581.59;10490641;28;20371;-30
2023/08/18 11:46:20;;;;;;;0.63;0.63;;;;;;;21.88;61.49;96573.09;10488852;28;20394;-29
2023/08/18 11:51:21;;;;;;;0.80;0.80;;;;;;;21.89;61.44;96580.69;10494178;28;20115;-29
2023/08/18 11:56:25;;;;;;;1.87;0.70;;;;;;;21.85;61.63;96565.47;10489292;28;20033;-31
2023/08/18 12:01:32;;;;;;;0.60;0.60;;;;;;;21.85;61.54;96570.59;10493206;28;20048;-31
2023/08/18 12:06:32;;;;;;;1.77;1.42;;;;;;;21.88;61.21;96565.47;10486389;28;20116;-29
2023/08/18 12:11:34;;;;;;;0.60;0.60;;;;;;;21.88;61.38;96557.81;10490198;28;20528;-29
2023/08/18 12:16:35;;;;;;;0.40;0.40;;;;;;;21.87;61.57;96556.94;10493178;28;20470;-29
2023/08/18 12:21:38;;;;;;;0.60;0.60;;;;;;;21.88;61.57;96552.72;10488422;28;20032;-29
2023/08/18 12:26:39;;;;;;;0.60;0.60;;;;;;;21.88;61.31;96550.97;10492847;28;20418;-29
2023/08/18 12:31:39;;;;;;;0.73;0.53;;;;;;;21.87;61.57;96549.31;10488107;28;20032;-30
2023/08/18 12:36:39;;;;;;;0.60;0.60;;;;;;;21.89;61.21;96554.38;10490565;28;20032;-29
2023/08/18 12:41:40;;;;;;;0.90;0.70;;;;;;;21.89;61.82;96539.91;10486817;28;20040;-29
2023/08/18 12:46:41;;;;;;;0.65;0.57;;;;;;;21.89;61.84;96545.00;10489749;28;20466;-29
2023/08/18 12:51:41;;;;;;;0.70;0.68;;;;;;;21.90;61.75;96546.69;10486833;28;20035;-29
2023/08/18 12:56:42;;;;;;;0.67;0.67;;;;;;;21.89;61.28;96539.91;10486665;28;20085;-29
2023/08/18 13:01:42;;;;;;;0.73;0.73;;;;;;;21.90;61.54;96540.78;10492093;28;20036;-30
2023/08/18 13:06:42;;;;;;;0.50;0.50;;;;;;;21.90;61.37;96540.78;10490114;28;20037;-29
2023/08/18 13:11:43;;;;;;;0.60;0.60;;;;;;;21.89;61.66;96542.47;10491151;28;20372;-29
2023/08/18 13:16:43;;;;;;;0.70;0.70;;;;;;;21.90;61.24;96535.69;10490279;28;20299;-29
2023/08/18 13:21:44;;;;;;;0.40;0.40;;;;;;;21.90;61.51;96536.50;10486572;28;20032;-30
2023/08/18 13:26:44;;;;;;;0.68;0.50;;;;;;;21.90;61.25;96530.56;10482423;28;20052;-29
2023/08/18 13:31:46;;;;;;;0.57;0.57;;;;;;;21.90;61.78;96539.06;10491257;28;20109;-29
2023/08/18 13:36:46;;;;;;;0.70;0.70;;;;;;;21.90;61.60;96540.78;10490124;28;20150;-29
2023/08/18 13:41:47;;;;;;;0.63;0.63;;;;;;;21.91;61.57;96533.06;10489456;28;20157;-30
2023/08/18 13:46:47;;;;;;;0.73;0.73;;;;;;;21.90;62.31;96528.03;10485702;28;20067;-29
2023/08/18 13:51:47;;;;;;;0.63;0.63;;;;;;;21.91;61.98;96527.97;10488261;28;20032;-32
2023/08/18 13:56:48;;;;;;;0.60;0.60;;;;;;;21.92;61.95;96526.28;10485581;28;20036;-29
2023/08/18 14:01:48;;;;;;;0.60;0.60;;;;;;;21.92;61.82;96524.59;10485666;28;20032;-30
2023/08/18 14:06:49;;;;;;;0.70;0.60;;;;;;;21.92;62.05;96524.59;10490628;28;20784;-29
2023/08/18 14:11:49;;;;;;;0.60;0.60;;;;;;;21.92;62.00;96516.09;10486443;28;20516;-29
2023/08/18 14:16:49;;;;;;;0.70;0.70;;;;;;;21.92;61.76;96519.50;10490312;28;20494;-29
2023/08/18 14:21:50;;;;;;;0.50;0.50;;;;;;;21.89;61.88;96519.53;10481752;28;20033;-29
2023/08/18 14:26:50;;;;;;;0.77;0.53;;;;;;;21.88;62.25;96510.19;10490614;28;20111;-30
2023/08/18 14:31:50;;;;;;;1.03;0.93;;;;;;;21.92;61.71;96511.84;10497450;28;20036;-30
2023/08/18 14:36:51;;;;;;;0.63;0.63;;;;;;;21.91;61.73;96507.59;10492144;28;20029;-30
2023/08/18 14:41:51;;;;;;;0.50;0.47;;;;;;;21.92;62.29;96504.19;10496964;28;20039;-29
2023/08/18 14:46:52;;;;;;;0.60;0.50;;;;;;;21.91;62.21;96507.59;10490789;28;20020;-29
2023/08/18 14:51:52;;;;;;;0.67;0.60;;;;;;;21.92;61.88;96504.19;10493544;28;20028;-29
2023/08/18 14:56:52;;;;;;;0.60;0.60;;;;;;;21.93;62.26;96505.88;10496506;28;20165;-29
2023/08/18 15:01:53;;;;;;;0.40;0.40;;;;;;;21.94;62.08;96506.69;10492056;28;20032;-30
2023/08/18 15:06:53;;;;;;;0.50;0.50;;;;;;;21.93;62.04;96500.78;10496722;28;20035;-29
2023/08/18 15:11:54;;;;;;;0.43;0.43;;;;;;;21.94;61.95;96491.41;10489619;28;20399;-30
2023/08/18 15:16:54;;;;;;;0.63;0.63;;;;;;;21.94;62.00;96499.91;10495452;28;20295;-29
2023/08/18 15:21:54;;;;;;;0.60;0.60;;;;;;;21.94;62.28;96496.50;10493134;28;20320;-29
2023/08/18 15:26:55;;;;;;;0.73;0.67;;;;;;;21.94;61.90;96493.97;10495480;28;20442;-29
2023/08/18 15:31:56;;;;;;;1.60;0.60;;;;;;;21.96;62.12;96493.06;10487929;28;20463;-29
2023/08/18 15:36:59;;;;;;;0.60;0.60;;;;;;;21.92;61.92;96485.50;10492903;28;20029;-29
2023/08/18 15:41:59;;;;;;;0.50;0.50;;;;;;;21.91;62.12;96482.09;10494506;28;20584;-31
2023/08/18 15:46:59;;;;;;;0.40;0.40;;;;;;;21.91;61.88;96477.00;10487135;28;20157;-29
2023/08/18 15:52:00;;;;;;;0.53;0.50;;;;;;;21.95;61.74;96486.28;10494523;28;20035;-29
2023/08/18 15:57:00;;;;;;;0.60;0.60;;;;;;;21.94;62.39;96478.66;10492373;28;20287;-29
2023/08/18 16:02:01;;;;;;;0.60;0.60;;;;;;;21.93;61.89;96472.75;10485654;28;20300;-30
2023/08/18 16:07:01;;;;;;;0.67;0.60;;;;;;;21.95;61.82;96465.03;10493966;28;20031;-30
2023/08/18 16:12:01;;;;;;;0.50;0.50;;;;;;;21.93;61.78;96460.00;10489320;28;20509;-29
2023/08/18 16:17:03;;;;;;;0.50;0.50;;;;;;;21.91;61.58;96459.16;10491864;28;20077;-30
2023/08/18 16:22:04;;;;;;;0.50;0.50;;;;;;;21.95;61.75;96463.34;10488814;28;20402;-29
2023/08/18 16:27:04;;;;;;;1.13;0.53;;;;;;;21.94;61.60;96456.56;10492288;28;20104;-29
2023/08/18 16:32:05;;;;;;;0.63;0.60;;;;;;;21.94;61.72;96454.03;10492567;28;20032;-29
2023/08/18 16:37:05;;;;;;;0.50;0.50;;;;;;;21.95;61.47;96463.34;10489627;28;20036;-29
2023/08/18 16:42:09;;;;;;;0.57;0.57;;;;;;;21.93;61.63;96454.03;10492054;28;20048;-29
2023/08/18 16:47:09;;;;;;;0.60;0.60;;;;;;;21.94;61.51;96459.13;10485566;28;20405;-30
2023/08/18 16:52:09;;;;;;;0.40;0.40;;;;;;;21.94;61.48;96451.47;10490738;28;20046;-30
2023/08/18 16:57:10;;;;;;;0.40;0.40;;;;;;;21.95;61.61;96458.25;10488564;28;20080;-30
2023/08/18 17:02:10;;;;;;;0.87;0.57;;;;;;;21.95;61.69;96463.34;10488421;28;20302;-29
2023/08/18 17:07:10;;;;;;;0.40;0.40;;;;;;;21.96;61.69;96466.72;10487585;28;20054;-29
2023/08/18 17:12:11;;;;;;;0.87;0.70;;;;;;;21.94;61.53;96465.91;10482998;28;20044;-29
2023/08/18 17:17:11;;;;;;;0.43;0.40;;;;;;;21.97;61.73;96465.88;10491445;28;20780;-30
2023/08/18 17:22:11;;;;;;;0.60;0.60;;;;;;;21.95;61.68;96468.44;10485542;28;20445;-30
2023/08/18 17:27:12;;;;;;;0.60;0.60;;;;;;;21.96;61.73;96469.28;10491766;28;20379;-30
2023/08/18 17:32:12;;;;;;;0.60;0.60;;;;;;;21.96;61.53;96479.47;10489666;28;20513;-29
2023/08/18 17:37:16;;;;;;;0.50;0.50;;;;;;;21.95;61.50;96483.75;10486523;28;20055;-30
2023/08/18 17:42:16;;;;;;;0.70;0.70;;;;;;;21.95;61.53;96483.75;10490910;28;20051;-29
2023/08/18 17:47:17;;;;;;;0.70;0.70;;;;;;;21.90;61.19;96477.88;10486434;28;20392;-29
2023/08/18 17:52:17;;;;;;;0.53;0.53;;;;;;;21.95;61.24;96486.28;10490795;28;20498;-30
2023/08/18 17:57:17;;;;;;;0.90;0.60;;;;;;;21.93;61.42;96490.59;10487169;28;20045;-29
2023/08/18 18:02:19;;;;;;;0.40;0.40;;;;;;;21.92;61.30;96488.91;10491550;28;20047;-30
2023/08/18 18:07:19;;;;;;;0.63;0.55;;;;;;;21.93;61.24;96493.13;10494840;28;20036;-29
2023/08/18 18:12:19;;;;;;;0.40;0.40;;;;;;;21.93;61.23;96493.13;10494489;28;20048;-30
2023/08/18 18:17:20;;;;;;;0.57;0.50;;;;;;;21.93;61.05;96492.28;10493162;28;20037;-30
2023/08/18 18:22:20;;;;;;;0.50;0.50;;;;;;;21.93;61.16;96485.47;10495593;28;20028;-29
2023/08/18 18:27:24;;;;;;;0.47;0.47;;;;;;;21.93;61.30;96490.59;10498083;28;20038;-30
2023/08/18 18:32:25;;;;;;;0.50;0.50;;;;;;;21.92;61.09;96499.09;10492785;28;20032;-30
2023/08/18 18:37:25;;;;;;;0.68;0.57;;;;;;;21.93;61.26;96505.03;10497412;28;20037;-29
2023/08/18 18:42:25;;;;;;;0.50;0.50;;;;;;;21.94;60.93;96512.66;10489091;28;20062;-29
2023/08/18 18:47:28;;;;;;;0.70;0.60;;;;;;;21.93;61.16;96521.16;10493449;28;20446;-30
2023/08/18 18:52:29;;;;;;;0.60;0.50;;;;;;;21.94;61.13;96514.34;10493933;28;20078;-30
2023/08/18 18:57:30;;;;;;;0.30;0.30;;;;;;;21.94;60.66;96516.91;10490145;28;20393;-29
2023/08/18 19:02:33;;;;;;;0.50;0.50;;;;;;;21.91;60.97;96507.59;10496520;28;20032;-30
2023/08/18 19:07:34;;;;;;;0.90;0.50;;;;;;;21.93;61.04;96508.44;10492482;28;20278;-29
2023/08/18 19:12:34;;;;;;;0.50;0.50;;;;;;;21.93;61.09;96503.31;10493344;28;20025;-30
2023/08/18 19:17:34;;;;;;;0.40;0.40;;;;;;;21.94;61.11;96515.22;10493595;28;20032;-29
2023/08/18 19:22:35;;;;;;;0.63;0.50;;;;;;;21.95;60.87;96514.34;10493818;28;20029;-29
2023/08/18 19:27:35;;;;;;;0.37;0.37;;;;;;;21.95;61.20;96514.34;10495647;28;20289;-29
2023/08/18 19:32:36;;;;;;;0.50;0.50;;;;;;;21.95;61.06;96511.78;10490983;28;20418;-29
2023/08/18 19:37:37;;;;;;;0.40;0.40;;;;;;;21.95;61.12;96519.44;10495432;28;20037;-29
2023/08/18 19:42:37;;;;;;;0.50;0.50;;;;;;;21.93;61.16;96518.63;10489831;28;20383;-29
2023/08/18 19:47:38;;;;;;;1.03;0.90;;;;;;;21.95;61.09;96524.53;10489858;28;20024;-29
2023/08/18 19:52:38;;;;;;;0.50;0.50;;;;;;;21.95;60.98;96523.69;10492400;28;20680;-30
2023/08/18 19:57:38;;;;;;;0.37;0.37;;;;;;;21.95;61.08;96523.69;10485171;28;20461;-29
2023/08/18 20:02:39;;;;;;;0.60;0.60;;;;;;;21.90;60.92;96526.31;10493847;28;20501;-30
2023/08/18 20:07:39;;;;;;;0.60;0.57;;;;;;;21.90;60.94;96521.22;10486470;28;20294;-28
2023/08/18 20:12:40;;;;;;;0.53;0.53;;;;;;;21.93;60.94;96528.81;10489426;28;20043;-28
2023/08/18 20:17:42;;;;;;;0.40;0.40;;;;;;;21.93;61.00;96531.38;10493943;28;20085;-29
2023/08/18 20:22:43;;;;;;;0.40;0.40;;;;;;;21.93;61.12;96541.56;10483650;28;20041;-29
2023/08/18 20:27:43;;;;;;;0.40;0.40;;;;;;;21.93;60.99;96536.47;10493152;28;20029;-29
2023/08/18 20:32:44;;;;;;;0.40;0.37;;;;;;;21.94;60.92;96542.38;10488376;28;20471;-29
2023/08/18 20:37:44;;;;;;;0.40;0.40;;;;;;;21.94;60.87;96547.50;10492845;28;20498;-30
2023/08/18 20:42:44;;;;;;;0.50;0.50;;;;;;;21.90;61.00;96543.31;10487832;28;20294;-29
2023/08/18 20:47:45;;;;;;;0.50;0.50;;;;;;;21.96;60.80;96545.75;10492084;28;20026;-29
2023/08/18 20:52:45;;;;;;;0.47;0.47;;;;;;;21.93;60.86;96551.75;10484057;28;20843;-29
2023/08/18 20:57:45;;;;;;;0.30;0.30;;;;;;;21.95;60.94;96552.56;10484152;28;20293;-29
2023/08/18 21:02:46;;;;;;;0.43;0.43;;;;;;;21.93;60.85;96556.88;10491614;28;20036;-30
2023/08/18 21:07:46;;;;;;;0.30;0.30;;;;;;;21.88;60.91;96547.63;10485160;28;20027;-29
2023/08/18 21:12:47;;;;;;;0.40;0.40;;;;;;;21.95;61.09;96560.22;10491356;28;20040;-29
2023/08/18 21:17:47;;;;;;;0.40;0.40;;;;;;;21.97;61.12;96557.66;10489579;28;20033;-30
2023/08/18 21:22:48;;;;;;;0.50;0.50;;;;;;;21.97;61.06;96558.47;10491217;28;20075;-30
2023/08/18 21:27:48;;;;;;;0.47;0.47;;;;;;;21.96;61.00;96561.03;10486192;28;20285;-30
2023/08/18 21:32:48;;;;;;;0.53;0.53;;;;;;;21.95;60.77;96565.31;10485775;28;20570;-29
2023/08/18 21:37:49;;;;;;;0.70;0.70;;;;;;;21.93;60.90;96561.97;10497835;28;20302;-29
2023/08/18 21:42:49;;;;;;;0.40;0.40;;;;;;;21.96;61.30;96561.03;10492507;28;20025;-30
2023/08/18 21:47:51;;;;;;;0.63;0.60;;;;;;;21.97;61.25;96568.69;10499895;28;20752;-29
2023/08/18 21:52:53;;;;;;;0.30;0.30;;;;;;;21.98;61.44;96562.72;10492907;28;20543;-29
2023/08/18 21:57:53;;;;;;;0.50;0.50;;;;;;;21.98;61.03;96560.16;10498994;28;20086;-29
2023/08/18 22:02:54;;;;;;;0.40;0.40;;;;;;;21.94;60.79;96545.78;10496100;28;20378;-29
2023/08/18 22:07:54;;;;;;;0.40;0.40;;;;;;;21.98;61.10;96559.34;10499020;28;20043;-28
2023/08/18 22:12:55;;;;;;;0.50;0.50;;;;;;;21.96;60.92;96556.81;10490766;28;20514;-29
2023/08/18 22:17:55;;;;;;;0.40;0.40;;;;;;;21.92;61.04;96549.22;10491540;28;20036;-30
2023/08/18 22:22:56;;;;;;;0.50;0.50;;;;;;;21.96;61.11;96555.94;10497843;28;20314;-29
2023/08/18 22:27:56;;;;;;;0.60;0.60;;;;;;;21.92;61.02;96555.19;10491531;28;20048;-29
2023/08/18 22:32:58;;;;;;;0.60;0.60;;;;;;;21.97;61.38;96550.84;10497418;28;20029;-29
2023/08/18 22:37:58;;;;;;;0.40;0.40;;;;;;;21.98;60.98;96560.16;10492780;28;20024;-30
2023/08/18 22:42:58;;;;;;;0.50;0.50;;;;;;;21.99;61.00;96553.38;10489020;28;20474;-30
2023/08/18 22:47:59;;;;;;;0.40;0.40;;;;;;;21.98;60.94;96555.06;10496072;28;20094;-31
2023/08/18 22:52:59;;;;;;;0.50;0.50;;;;;;;21.97;61.03;96555.94;10487767;28;20424;-30
2023/08/18 22:57:59;;;;;;;0.33;0.33;;;;;;;21.98;61.11;96557.59;10496807;28;20033;-29
2023/08/18 23:03:00;;;;;;;0.60;0.50;;;;;;;21.99;61.03;96558.47;10487424;28;20030;-29
2023/08/18 23:08:00;;;;;;;0.40;0.40;;;;;;;21.98;61.05;96557.59;10492312;28;20028;-30
2023/08/18 23:13:01;;;;;;;0.43;0.43;;;;;;;21.96;60.85;96551.69;10495946;28;20672;-29
2023/08/18 23:18:01;;;;;;;0.60;0.60;;;;;;;21.97;61.15;96558.47;10489496;28;20036;-29